Montague, CA (96064)

12:49 PM PDT on July 27, 2016 (GMT -0700)
Mount Shasta | | Change Station

Elev 3533 ft 41.32 °N, 122.32 °W | Updated 53 minutes ago

Clear
Clear
93 °F
Feels Like 93 °F
N
0
Wind Variable Wind from North

Today
High -- | Low -- °F
--% Chance of Precip.
Yesterday
High -- | Low -- °F
Precip. -- in
Pressure 30.00 in
Visibility 10.0 miles
Clouds Clear
Dew Point 50 °F
Humidity 23%
Rainfall 0.00 in
Snow Depth Not available.
5:57 AM 8:29 PM
Last Quarter, 40% visible
METAR KMHS 271856Z AUTO 00000KT 10SM CLR 34/10 A3007 RMK AO2 SLP158 T03390100
Pressure 30.00 in
Visibility 10.0 miles
Clouds Clear
Dew Point 50 °F
Humidity 23%
Rainfall 0.00 in
Snow Depth Not available.
5:57 AM 8:29 PM
Last Quarter, 40% visible
METAR KMHS 271856Z AUTO 00000KT 10SM CLR 34/10 A3007 RMK AO2 SLP158 T03390100

10-Day Weather Forecast

Almanac

Astronomy

Jul. 27, 2016 Rise Set
Actual Time
Civil Twilight
Nautical Twilight
Astronomical Twilight
Moon
Length of Visible Light
Length of Day
Tomorrow will be .
, % of the Moon is Illuminated

Today's Extremes

State Highs State Lows

Community

WunderPhotos

Upload Photos

1,927,920 photos uploaded!

WunderBlog® & News

Nearby

Air Quality

  Air Quality AQ Index Pollutant
Not available.

Snow Depth

Station Depth Elevation

Earthquake Activity

City Distance Mag. Time & Date
Minimum magnitude displayed is 2.5.

Coastal Water Temperatures

Place Temperature

Stations

Nearby Weather Stations

Station Location Temp. Windchill Dew Point Humidity Wind Precip. Elev Updated Type
                   

Watches & Warnings

There are currently no watches in effect.